createdAt,value
2019-03-30T00:00:07.484Z,5.50
2019-03-30T00:02:38.405Z,5.40
2019-03-30T00:05:07.737Z,5.20
2019-03-30T00:07:37.032Z,5.10
2019-03-30T00:10:06.787Z,5.00
2019-03-30T00:12:36.089Z,5.00
2019-03-30T00:15:06.224Z,5.10
2019-03-30T00:17:35.621Z,5.10
2019-03-30T00:20:06.164Z,5.10
2019-03-30T00:22:35.515Z,5.10
2019-03-30T00:25:06.489Z,5.00
2019-03-30T00:27:36.809Z,5.00
2019-03-30T00:30:07.615Z,5.00
2019-03-30T00:32:36.924Z,4.90
2019-03-30T00:35:06.969Z,4.90
2019-03-30T00:37:36.273Z,4.90
2019-03-30T00:40:06.908Z,4.90
2019-03-30T00:42:36.237Z,4.90
2019-03-30T00:45:07.081Z,4.90
2019-03-30T00:47:36.389Z,4.80
2019-03-30T00:50:06.061Z,4.80
2019-03-30T00:52:35.369Z,4.80
2019-03-30T00:55:07.407Z,4.70
2019-03-30T00:57:36.700Z,4.70
2019-03-30T01:00:08.128Z,4.50
2019-03-30T01:02:37.426Z,4.50
2019-03-30T01:05:07.179Z,4.50
2019-03-30T01:07:36.485Z,4.50
2019-03-30T01:10:06.792Z,4.50
2019-03-30T01:12:36.195Z,4.50
2019-03-30T01:15:08.920Z,4.50
2019-03-30T01:17:38.251Z,4.50
2019-03-30T01:20:08.284Z,4.50
2019-03-30T01:22:37.591Z,4.40
2019-03-30T01:25:08.329Z,4.40
2019-03-30T01:27:37.632Z,4.40
2019-03-30T01:30:22.125Z,4.30
2019-03-30T01:32:39.482Z,4.30
2019-03-30T01:35:09.002Z,4.30
2019-03-30T01:37:38.494Z,4.20
2019-03-30T01:40:08.575Z,4.20
2019-03-30T01:42:37.868Z,4.10
2019-03-30T01:45:08.155Z,4.00
2019-03-30T01:47:37.453Z,3.90
2019-03-30T01:50:17.391Z,3.70
2019-03-30T01:52:40.738Z,3.70
2019-03-30T01:55:10.180Z,3.70
2019-03-30T01:57:39.493Z,3.70
2019-03-30T02:00:09.810Z,3.70
2019-03-30T02:02:39.184Z,3.70
2019-03-30T02:05:09.125Z,3.70
2019-03-30T02:07:38.428Z,3.70
2019-03-30T02:10:09.546Z,3.70
2019-03-30T02:12:39.052Z,3.70
2019-03-30T02:15:10.907Z,3.60
2019-03-30T02:17:40.196Z,3.70
2019-03-30T02:20:11.196Z,3.60
2019-03-30T02:22:40.500Z,3.60
2019-03-30T02:25:09.939Z,3.60
2019-03-30T02:27:39.231Z,3.50
2019-03-30T02:30:08.708Z,3.40
2019-03-30T02:32:39.383Z,3.50
2019-03-30T02:35:08.678Z,3.50
2019-03-30T02:37:38.005Z,3.50
2019-03-30T02:40:07.618Z,3.40
2019-03-30T02:42:36.905Z,3.30
2019-03-30T02:45:07.063Z,3.20
2019-03-30T02:47:36.359Z,3.20
2019-03-30T02:50:06.491Z,3.20
2019-03-30T02:52:35.796Z,3.10
2019-03-30T02:55:07.194Z,3.10
2019-03-30T02:57:36.576Z,3.00
2019-03-30T03:00:08.350Z,3.00
2019-03-30T03:02:37.661Z,3.10
2019-03-30T03:05:08.504Z,3.10
2019-03-30T03:07:38.955Z,3.10
2019-03-30T03:10:10.054Z,3.10
2019-03-30T03:12:39.356Z,3.00
2019-03-30T03:15:09.068Z,3.10
2019-03-30T03:17:38.378Z,3.10
2019-03-30T03:20:07.898Z,3.00
2019-03-30T03:22:37.408Z,3.00
2019-03-30T03:25:07.140Z,3.00
2019-03-30T03:27:36.458Z,2.90
2019-03-30T03:30:06.969Z,2.90
2019-03-30T03:32:36.389Z,2.90
2019-03-30T03:35:06.018Z,2.80
2019-03-30T03:37:44.418Z,2.80
2019-03-30T03:40:07.970Z,2.80
2019-03-30T03:42:37.270Z,2.70
2019-03-30T03:45:10.857Z,2.70
2019-03-30T03:47:40.264Z,2.70
2019-03-30T03:50:12.674Z,2.70
2019-03-30T03:52:42.219Z,2.70
2019-03-30T03:55:11.894Z,2.60
2019-03-30T03:57:43.140Z,2.60
2019-03-30T04:00:13.577Z,2.60
2019-03-30T04:02:44.002Z,2.60
2019-03-30T04:05:13.574Z,2.50
2019-03-30T04:07:43.250Z,2.40
2019-03-30T04:10:12.618Z,2.40
2019-03-30T04:12:43.653Z,2.40
2019-03-30T04:15:16.200Z,2.40
2019-03-30T04:17:46.580Z,2.40
2019-03-30T04:20:20.189Z,2.40
2019-03-30T04:22:49.491Z,2.40
2019-03-30T04:25:18.779Z,2.40
2019-03-30T04:27:48.087Z,2.40
2019-03-30T04:30:17.480Z,2.40
2019-03-30T04:32:46.834Z,2.40
2019-03-30T04:35:16.196Z,2.30
2019-03-30T04:37:45.503Z,2.30
2019-03-30T04:40:14.835Z,2.30
2019-03-30T04:42:44.131Z,2.30
2019-03-30T04:45:13.713Z,2.20
2019-03-30T04:47:43.016Z,2.10
2019-03-30T04:50:12.764Z,2.10
2019-03-30T04:52:42.155Z,2.10
2019-03-30T04:55:11.897Z,2.00
2019-03-30T04:57:41.440Z,1.80
2019-03-30T05:00:10.885Z,1.80
2019-03-30T05:02:40.213Z,1.70
2019-03-30T05:05:09.752Z,1.80
2019-03-30T05:07:39.057Z,1.80
2019-03-30T05:10:08.719Z,1.90
2019-03-30T05:12:38.060Z,1.90
2019-03-30T05:15:08.012Z,1.90
2019-03-30T05:17:46.785Z,1.80
2019-03-30T05:20:09.069Z,1.90
2019-03-30T05:22:38.374Z,1.90
2019-03-30T05:25:07.843Z,1.90
2019-03-30T05:27:37.140Z,1.90
2019-03-30T05:30:08.303Z,1.80
2019-03-30T05:32:37.604Z,1.80
2019-03-30T05:35:07.390Z,1.80
2019-03-30T05:37:38.116Z,1.80
2019-03-30T05:40:08.848Z,1.90
2019-03-30T05:42:38.140Z,1.90
2019-03-30T05:45:07.808Z,2.00
2019-03-30T05:47:37.168Z,2.00
2019-03-30T05:50:07.612Z,2.00
2019-03-30T05:52:36.917Z,2.10
2019-03-30T05:55:06.388Z,2.20
2019-03-30T05:57:37.984Z,2.20
2019-03-30T06:00:08.792Z,2.20
2019-03-30T06:02:38.122Z,2.30
2019-03-30T06:05:07.592Z,2.40
2019-03-30T06:07:36.897Z,2.50
2019-03-30T06:10:06.460Z,2.60
2019-03-30T06:12:35.849Z,2.70
2019-03-30T06:15:08.780Z,2.80
2019-03-30T06:17:38.074Z,3.00
2019-03-30T06:20:07.735Z,3.00
2019-03-30T06:22:40.682Z,3.10
2019-03-30T06:25:08.269Z,3.20
2019-03-30T06:27:37.579Z,3.30
2019-03-30T06:30:15.215Z,3.40
2019-03-30T06:32:45.697Z,3.50
2019-03-30T06:35:15.131Z,3.50
2019-03-30T06:37:44.498Z,3.60
2019-03-30T06:40:14.956Z,3.70
2019-03-30T06:42:44.489Z,3.90
2019-03-30T06:45:14.260Z,3.90
2019-03-30T06:47:44.013Z,4.00
2019-03-30T06:50:13.748Z,4.20
2019-03-30T06:52:56.856Z,4.40
2019-03-30T06:55:14.203Z,4.60
2019-03-30T06:57:44.079Z,4.70
2019-03-30T07:00:14.211Z,4.90
2019-03-30T07:02:43.587Z,5.10
2019-03-30T07:05:13.066Z,5.30
2019-03-30T07:07:46.336Z,5.50
2019-03-30T07:10:15.802Z,5.90
2019-03-30T07:12:46.824Z,6.20
2019-03-30T07:15:16.120Z,6.60
2019-03-30T07:17:47.060Z,6.80
2019-03-30T07:20:29.623Z,7.00
2019-03-30T07:23:11.390Z,7.40
2019-03-30T07:25:30.874Z,7.80
2019-03-30T07:28:00.176Z,8.20
2019-03-30T07:30:29.479Z,8.60
2019-03-30T07:32:58.777Z,8.80
2019-03-30T07:35:28.091Z,9.00
2019-03-30T07:37:57.388Z,9.20
2019-03-30T07:40:26.683Z,9.30
2019-03-30T07:42:56.253Z,9.70
2019-03-30T07:45:25.547Z,10.00
2019-03-30T07:47:54.868Z,10.30
2019-03-30T07:50:24.845Z,10.70
2019-03-30T07:52:54.149Z,10.90
2019-03-30T07:55:23.465Z,11.10
2019-03-30T07:57:53.115Z,11.40
2019-03-30T08:00:22.471Z,11.50
2019-03-30T08:02:51.781Z,11.50
2019-03-30T08:05:21.185Z,11.90
2019-03-30T08:07:50.492Z,12.40
2019-03-30T08:10:19.876Z,12.40
2019-03-30T08:12:49.184Z,12.90
2019-03-30T08:15:18.492Z,13.20
2019-03-30T08:17:47.809Z,13.30
2019-03-30T08:20:17.190Z,13.60
2019-03-30T08:22:46.513Z,13.90
2019-03-30T08:25:15.824Z,13.90
2019-03-30T08:27:45.129Z,14.20
2019-03-30T08:30:15.087Z,14.50
2019-03-30T08:32:44.453Z,14.50
2019-03-30T08:35:13.760Z,14.40
2019-03-30T08:37:43.992Z,14.40
2019-03-30T08:40:13.463Z,14.50
2019-03-30T08:42:42.772Z,14.50
2019-03-30T08:45:31.479Z,14.70
2019-03-30T08:48:00.779Z,15.20
2019-03-30T08:50:30.079Z,15.60
2019-03-30T08:52:59.393Z,15.50
2019-03-30T08:55:28.701Z,15.70
2019-03-30T08:58:00.945Z,16.00
2019-03-30T09:00:43.030Z,16.30
2019-03-30T09:03:12.417Z,16.70
2019-03-30T09:05:41.724Z,16.70
2019-03-30T09:08:11.033Z,16.40
2019-03-30T09:10:40.337Z,16.50
2019-03-30T09:13:09.645Z,16.90
2019-03-30T09:15:40.098Z,17.10
2019-03-30T09:18:09.404Z,17.00
2019-03-30T09:20:38.707Z,17.20
2019-03-30T09:23:08.103Z,17.00
2019-03-30T09:25:37.420Z,17.40
2019-03-30T09:28:06.731Z,17.80
2019-03-30T09:30:36.180Z,17.80
2019-03-30T09:33:06.428Z,18.10
2019-03-30T09:35:35.736Z,18.10
2019-03-30T09:38:05.039Z,18.00
2019-03-30T09:40:34.581Z,17.90
2019-03-30T09:43:04.170Z,18.30
2019-03-30T09:45:33.484Z,18.90
2019-03-30T09:48:02.796Z,18.90
2019-03-30T09:50:32.571Z,19.10
2019-03-30T09:53:03.033Z,19.40
2019-03-30T09:55:32.335Z,19.60
2019-03-30T09:58:02.124Z,20.00
2019-03-30T10:00:31.434Z,20.10
2019-03-30T10:03:00.816Z,19.60
2019-03-30T10:05:30.140Z,19.80
2019-03-30T10:07:59.448Z,19.90
2019-03-30T10:10:28.767Z,19.70
2019-03-30T10:12:58.064Z,19.90
2019-03-30T10:15:27.378Z,19.80
2019-03-30T10:17:56.730Z,19.90
2019-03-30T10:20:26.109Z,20.10
2019-03-30T10:22:55.418Z,20.40
2019-03-30T10:25:24.727Z,20.50
2019-03-30T10:27:54.023Z,20.80
2019-03-30T10:30:24.028Z,20.90
2019-03-30T10:32:53.335Z,20.90
2019-03-30T10:35:22.657Z,21.30
2019-03-30T10:37:52.036Z,22.00
2019-03-30T10:40:21.345Z,22.10
2019-03-30T10:42:50.656Z,21.80
2019-03-30T10:45:19.960Z,21.80
2019-03-30T10:47:49.867Z,21.90
2019-03-30T10:50:19.184Z,22.00
2019-03-30T10:52:49.465Z,21.70
2019-03-30T10:55:18.759Z,21.60
2019-03-30T10:57:48.065Z,21.60
2019-03-30T11:00:24.366Z,21.60
2019-03-30T11:02:53.664Z,21.40
2019-03-30T11:05:22.963Z,21.60
2019-03-30T11:07:53.088Z,21.60
2019-03-30T11:10:22.419Z,21.60
2019-03-30T11:12:57.929Z,21.60
2019-03-30T11:15:27.352Z,21.50
2019-03-30T11:17:56.668Z,21.50
2019-03-30T11:20:25.977Z,21.40
2019-03-30T11:22:55.276Z,21.60
2019-03-30T11:25:24.777Z,21.70
2019-03-30T11:27:54.147Z,21.60
2019-03-30T11:30:23.452Z,21.30
2019-03-30T11:32:52.756Z,21.00
2019-03-30T11:35:22.055Z,21.30
2019-03-30T11:37:51.409Z,21.80
2019-03-30T11:40:20.708Z,21.90
2019-03-30T11:42:50.015Z,21.70
2019-03-30T11:45:19.321Z,21.80
2019-03-30T11:47:48.624Z,22.10
2019-03-30T11:50:17.958Z,22.40
2019-03-30T11:52:47.300Z,22.20
2019-03-30T11:55:22.246Z,22.70
2019-03-30T11:57:47.674Z,23.40
2019-03-30T12:00:17.895Z,23.50
2019-03-30T12:02:47.242Z,23.40
2019-03-30T12:05:16.592Z,23.10
2019-03-30T12:07:45.984Z,22.30
2019-03-30T12:10:15.451Z,21.60
2019-03-30T12:12:44.897Z,21.00
2019-03-30T12:15:14.332Z,20.60
2019-03-30T12:17:43.694Z,20.00
2019-03-30T12:20:13.107Z,19.70
2019-03-30T12:22:42.412Z,19.40
2019-03-30T12:25:11.884Z,19.40
2019-03-30T12:27:41.185Z,19.80
2019-03-30T12:30:10.928Z,19.80
2019-03-30T12:32:40.247Z,20.20
2019-03-30T12:35:09.604Z,20.20
2019-03-30T12:37:39.094Z,20.40
2019-03-30T12:40:10.453Z,20.90
2019-03-30T12:42:39.772Z,20.70
2019-03-30T12:45:09.410Z,20.40
2019-03-30T12:47:38.716Z,20.50
2019-03-30T12:50:08.253Z,20.00
2019-03-30T12:52:37.556Z,20.00
2019-03-30T12:55:07.897Z,20.10
2019-03-30T12:57:37.191Z,20.20
2019-03-30T13:00:11.072Z,20.10
2019-03-30T13:02:41.556Z,20.00
2019-03-30T13:05:10.929Z,20.00
2019-03-30T13:07:40.237Z,21.10
2019-03-30T13:10:09.884Z,21.40
2019-03-30T13:12:39.236Z,21.70
2019-03-30T13:15:09.479Z,21.10
2019-03-30T13:17:38.789Z,20.10
2019-03-30T13:20:09.063Z,19.60
2019-03-30T13:22:38.368Z,19.50
2019-03-30T13:25:08.985Z,19.80
2019-03-30T13:27:38.288Z,20.80
2019-03-30T13:30:09.242Z,21.20
2019-03-30T13:32:38.629Z,22.00
2019-03-30T13:35:07.932Z,22.40
2019-03-30T13:37:38.201Z,22.70
2019-03-30T13:40:08.248Z,22.70
2019-03-30T13:42:37.562Z,22.00
2019-03-30T13:45:07.891Z,20.90
2019-03-30T13:47:38.211Z,20.30
2019-03-30T13:50:08.056Z,20.00
2019-03-30T13:52:37.359Z,20.00
2019-03-30T13:55:06.737Z,20.60
2019-03-30T13:57:36.042Z,20.70
2019-03-30T14:00:08.570Z,21.10
2019-03-30T14:02:37.876Z,21.50
2019-03-30T14:05:09.204Z,21.80
2019-03-30T14:07:38.502Z,21.30
2019-03-30T14:10:08.739Z,20.50
2019-03-30T14:12:38.057Z,20.10
2019-03-30T14:15:09.371Z,19.80
2019-03-30T14:17:38.782Z,19.80
2019-03-30T14:20:08.323Z,19.60
2019-03-30T14:22:38.116Z,19.50
2019-03-30T14:25:07.951Z,19.40
2019-03-30T14:27:37.258Z,19.40
2019-03-30T14:30:11.240Z,19.30
2019-03-30T14:32:40.547Z,19.40
2019-03-30T14:35:10.165Z,20.40
2019-03-30T14:37:39.467Z,23.10
2019-03-30T14:40:09.312Z,24.80
2019-03-30T14:42:38.640Z,25.90
2019-03-30T14:45:09.081Z,26.20
2019-03-30T14:47:38.386Z,26.20
2019-03-30T14:50:09.219Z,26.40
2019-03-30T14:52:38.558Z,26.60
2019-03-30T14:55:09.492Z,25.90
2019-03-30T14:57:38.798Z,25.60
2019-03-30T15:00:10.220Z,25.20
2019-03-30T15:02:40.591Z,25.00
2019-03-30T15:05:10.137Z,25.30
2019-03-30T15:07:39.789Z,25.90
2019-03-30T15:10:09.729Z,25.60
2019-03-30T15:12:39.217Z,25.50
2019-03-30T15:15:13.892Z,25.40
2019-03-30T15:17:43.243Z,25.50
2019-03-30T15:20:12.981Z,25.40
2019-03-30T15:22:42.284Z,25.30
2019-03-30T15:25:13.110Z,25.40
2019-03-30T15:27:42.408Z,25.20
2019-03-30T15:30:13.055Z,24.20
2019-03-30T15:32:42.452Z,23.90
2019-03-30T15:35:11.772Z,23.90
2019-03-30T15:37:41.072Z,22.70
2019-03-30T15:40:10.719Z,23.20
2019-03-30T15:42:40.718Z,23.50
2019-03-30T15:45:11.759Z,23.90
2019-03-30T15:47:41.070Z,23.40
2019-03-30T15:50:11.204Z,23.10
2019-03-30T15:52:40.511Z,22.90
2019-03-30T15:55:10.155Z,22.30
2019-03-30T15:57:40.625Z,22.40
2019-03-30T16:00:15.597Z,22.70
2019-03-30T16:02:44.930Z,22.20
2019-03-30T16:05:15.686Z,22.00
2019-03-30T16:07:48.395Z,22.20
2019-03-30T16:10:17.943Z,22.40
2019-03-30T16:12:47.241Z,22.20
2019-03-30T16:15:16.560Z,22.10
2019-03-30T16:17:46.076Z,21.90
2019-03-30T16:20:15.464Z,21.80
2019-03-30T16:22:45.915Z,21.90
2019-03-30T16:25:15.298Z,21.70
2019-03-30T16:27:44.603Z,21.80
2019-03-30T16:30:14.567Z,21.40
2019-03-30T16:32:44.490Z,21.40
2019-03-30T16:35:13.804Z,21.20
2019-03-30T16:37:43.119Z,20.20
2019-03-30T16:40:12.596Z,19.30
2019-03-30T16:42:41.896Z,18.20
2019-03-30T16:45:11.463Z,17.80
2019-03-30T16:47:40.772Z,17.40
2019-03-30T16:50:10.277Z,17.20
2019-03-30T16:52:41.099Z,17.00
2019-03-30T16:55:11.076Z,16.80
2019-03-30T16:57:43.480Z,16.50
2019-03-30T17:00:12.044Z,16.30
2019-03-30T17:02:41.428Z,16.10
2019-03-30T17:05:11.077Z,15.90
2019-03-30T17:07:40.848Z,15.70
2019-03-30T17:10:12.375Z,15.70
2019-03-30T17:12:41.697Z,15.60
2019-03-30T17:15:11.245Z,15.50
2019-03-30T17:17:40.548Z,15.30
2019-03-30T17:20:10.297Z,15.20
2019-03-30T17:22:39.609Z,15.20
2019-03-30T17:25:09.261Z,15.00
2019-03-30T17:27:38.566Z,15.00
2019-03-30T17:30:09.027Z,15.00
2019-03-30T17:32:38.519Z,14.90
2019-03-30T17:35:08.569Z,14.80
2019-03-30T17:37:37.876Z,14.70
2019-03-30T17:40:11.876Z,14.60
2019-03-30T17:42:41.184Z,14.50
2019-03-30T17:45:11.840Z,14.40
2019-03-30T17:47:41.145Z,14.30
2019-03-30T17:50:10.891Z,14.20
2019-03-30T17:52:40.420Z,14.20
2019-03-30T17:55:10.819Z,14.10
2019-03-30T17:57:40.275Z,14.00
2019-03-30T18:00:11.899Z,13.90
2019-03-30T18:02:41.213Z,13.80
2019-03-30T18:05:10.769Z,13.60
2019-03-30T18:07:40.081Z,13.50
2019-03-30T18:10:10.723Z,13.40
2019-03-30T18:12:40.262Z,13.30
2019-03-30T18:15:10.313Z,13.10
2019-03-30T18:17:39.628Z,12.90
2019-03-30T18:20:09.267Z,12.70
2019-03-30T18:22:38.600Z,12.60
2019-03-30T18:25:27.251Z,12.50
2019-03-30T18:27:56.570Z,12.50
2019-03-30T18:30:38.168Z,12.40
2019-03-30T18:33:08.814Z,12.30
2019-03-30T18:35:40.060Z,12.30
2019-03-30T18:38:12.754Z,12.20
2019-03-30T18:40:41.124Z,12.20
2019-03-30T18:43:10.678Z,12.10
2019-03-30T18:45:39.981Z,12.10
2019-03-30T18:48:15.045Z,12.00
2019-03-30T18:50:45.596Z,11.90
2019-03-30T18:53:16.660Z,11.80
2019-03-30T18:55:45.972Z,11.70
2019-03-30T18:58:15.350Z,11.60
2019-03-30T19:00:44.658Z,11.60
2019-03-30T19:03:14.040Z,11.50
2019-03-30T19:05:43.975Z,11.40
2019-03-30T19:08:13.297Z,11.30
2019-03-30T19:10:42.691Z,11.20
2019-03-30T19:13:13.851Z,11.20
2019-03-30T19:15:43.167Z,11.20
2019-03-30T19:18:13.550Z,11.10
2019-03-30T19:20:42.860Z,11.10
2019-03-30T19:23:12.343Z,10.90
2019-03-30T19:25:41.690Z,10.90
2019-03-30T19:28:11.000Z,10.80
2019-03-30T19:30:42.155Z,10.80
2019-03-30T19:33:11.386Z,10.70
2019-03-30T19:35:41.855Z,10.70
2019-03-30T19:38:11.456Z,10.50
2019-03-30T19:40:40.769Z,10.50
2019-03-30T19:43:10.079Z,10.40
2019-03-30T19:45:39.388Z,10.40
2019-03-30T19:48:08.700Z,10.30
2019-03-30T19:50:38.012Z,10.20
2019-03-30T19:53:07.321Z,10.10
2019-03-30T19:55:36.699Z,10.00
2019-03-30T19:58:06.001Z,9.90
2019-03-30T20:00:38.499Z,9.90
2019-03-30T20:03:06.301Z,9.80
2019-03-30T20:05:35.608Z,9.80
2019-03-30T20:08:12.141Z,9.70
2019-03-30T20:10:36.082Z,9.70
2019-03-30T20:13:08.931Z,9.60
2019-03-30T20:15:37.709Z,9.60
2019-03-30T20:18:07.011Z,9.50
2019-03-30T20:20:37.224Z,9.40
2019-03-30T20:23:07.499Z,9.40
2019-03-30T20:25:36.803Z,9.20
2019-03-30T20:28:06.105Z,9.10
2019-03-30T20:30:35.405Z,8.90
2019-03-30T20:33:04.714Z,8.90
2019-03-30T20:35:34.011Z,8.80
2019-03-30T20:38:04.509Z,8.90
2019-03-30T20:40:33.804Z,8.90
2019-03-30T20:43:03.103Z,8.90
2019-03-30T20:45:32.400Z,8.80
2019-03-30T20:48:01.699Z,8.60
2019-03-30T20:50:31.009Z,8.60
2019-03-30T20:53:00.313Z,8.40
2019-03-30T20:55:33.706Z,8.40
2019-03-30T20:58:01.248Z,8.30
2019-03-30T21:00:30.553Z,8.30
2019-03-30T21:02:59.867Z,8.30
2019-03-30T21:05:29.163Z,8.10
2019-03-30T21:07:59.336Z,8.10
2019-03-30T21:10:28.715Z,8.10
2019-03-30T21:12:58.124Z,8.10
2019-03-30T21:15:27.426Z,8.10
2019-03-30T21:17:57.671Z,8.00
2019-03-30T21:20:26.983Z,8.00
2019-03-30T21:22:56.289Z,7.90
2019-03-30T21:25:25.587Z,7.90
2019-03-30T21:27:54.893Z,7.80
2019-03-30T21:30:25.069Z,7.80
2019-03-30T21:32:54.684Z,7.70
2019-03-30T21:35:23.990Z,7.70
2019-03-30T21:37:53.336Z,7.60
2019-03-30T21:40:22.643Z,7.50
2019-03-30T21:42:51.949Z,7.50
2019-03-30T21:45:21.249Z,7.40
2019-03-30T21:47:50.624Z,7.30
2019-03-30T21:50:20.462Z,7.30
2019-03-30T21:52:50.731Z,7.20
2019-03-30T21:55:20.028Z,7.20
2019-03-30T21:57:49.332Z,7.30
2019-03-30T22:00:36.139Z,7.30
2019-03-30T22:03:05.878Z,7.30
2019-03-30T22:05:35.924Z,7.30
2019-03-30T22:08:05.974Z,7.30
2019-03-30T22:10:35.346Z,7.20
2019-03-30T22:13:05.920Z,7.00
2019-03-30T22:15:35.216Z,6.90
2019-03-30T22:18:04.818Z,6.70
2019-03-30T22:20:34.124Z,6.60
2019-03-30T22:23:03.415Z,6.60
2019-03-30T22:25:33.289Z,6.60
2019-03-30T22:28:02.584Z,6.60
2019-03-30T22:30:31.881Z,6.60
2019-03-30T22:33:01.193Z,6.60
2019-03-30T22:35:30.540Z,6.50
2019-03-30T22:37:59.856Z,6.50
2019-03-30T22:40:29.154Z,6.40
2019-03-30T22:42:58.457Z,6.40
2019-03-30T22:45:27.931Z,6.30
2019-03-30T22:47:57.232Z,6.20
2019-03-30T22:50:26.568Z,6.20
2019-03-30T22:52:55.871Z,6.20
2019-03-30T22:55:25.167Z,6.20
2019-03-30T22:57:54.472Z,6.20
2019-03-30T23:00:39.406Z,6.30
2019-03-30T23:03:11.071Z,6.30
2019-03-30T23:05:40.399Z,6.30
2019-03-30T23:08:09.700Z,6.40
2019-03-30T23:10:39.028Z,6.40
2019-03-30T23:13:08.333Z,6.30
2019-03-30T23:15:37.636Z,6.20
2019-03-30T23:18:07.856Z,6.10
2019-03-30T23:20:37.167Z,6.20
2019-03-30T23:23:06.464Z,6.10
2019-03-30T23:25:35.765Z,6.10
2019-03-30T23:28:05.064Z,6.10
2019-03-30T23:30:34.377Z,6.10
2019-03-30T23:33:03.685Z,6.00
2019-03-30T23:35:32.988Z,6.00
2019-03-30T23:38:02.376Z,5.80
2019-03-30T23:40:31.677Z,5.90
2019-03-30T23:43:00.981Z,5.80
2019-03-30T23:45:30.363Z,5.90
2019-03-30T23:47:59.668Z,5.90
2019-03-30T23:50:29.528Z,5.90
2019-03-30T23:52:58.837Z,5.80
2019-03-30T23:55:28.143Z,5.70
2019-03-30T23:57:57.486Z,5.60
